Flight Track Log - Related Links

Times and Time Zones

All times are in EDT time to prevent confusion due to time zone crossing. See the TAM3515 flight status page for this flight to view local times or setup timezone preferences in your user account.

Time Position Orientation Groundspeed Altitude Reporting Facility
EDT Latitude Longitude Course Direction KTS MPH feet Rate Location/Type
Thu 03:42:00 AM -2.0187 -45.8563 104° East  Level Estimated
Thu 03:43:00 AM -2.0452 -45.7470 104° East  Level Estimated
Thu 03:44:00 AM -2.0718 -45.6378 104° East  Level Estimated
Thu 03:45:00 AM -2.0983 -45.5286 104° East  Level Estimated
Thu 03:46:00 AM -2.1248 -45.4194 104° East  Level Estimated
Thu 03:47:00 AM -2.1514 -45.3102 104° East  Level Estimated
Thu 03:48:00 AM -2.1779 -45.2009 104° East  Level Estimated
Thu 03:49:00 AM -2.2044 -45.0917 104° East  Level Estimated
Thu 03:50:00 AM -2.2309 -44.9825 104° East  Level Estimated
Thu 03:51:00 AM -2.2574 -44.8732 104° East  Level Estimated
Thu 03:52:00 AM -2.2839 -44.7640 104° East  Level Estimated
Thu 03:53:00 AM -2.3104 -44.6548 104° East  Level Estimated
Thu 03:54:00 AM -2.3368 -44.5455 104° East  Level Estimated
Thu 03:55:00 AM -2.3633 -44.4362 104° East  Level Estimated
Thu 03:56:00 AM -2.3898 -44.3270 104° East  Level Estimated
Thu 03:57:00 AM -2.4162 -44.2177 104° East  Level Estimated
Thu 03:58:00 AM -2.4427 -44.1085 104° East  Level Estimated
Thu 03:59:00 AM -2.4691 -43.9992 104° East  Level Estimated
Thu 04:00:00 AM -2.4955 -43.8899 104° East  Level Estimated
Thu 04:01:00 AM -2.5219 -43.7806 104° East  Level Estimated
Thu 04:02:00 AM -2.5483 -43.6713 104° East  Level Estimated
Thu 04:03:00 AM -2.5747 -43.5620 104° East  Level Estimated
Thu 04:04:00 AM -2.6011 -43.4528 104° East  Level Estimated
Thu 04:05:00 AM -2.6275 -43.3435 104° East  Level Estimated
Thu 04:06:00 AM -2.6538 -43.2342 104° East  Level Estimated
Thu 04:07:00 AM -2.6802 -43.1249 104° East  Level Estimated
Thu 04:08:00 AM -2.7065 -43.0155 104° East  Level Estimated
Thu 04:09:00 AM -2.7329 -42.9062 104° East  Level Estimated
Thu 04:10:00 AM -2.7592 -42.7969 104° East  Level Estimated
Thu 04:11:00 AM -2.7855 -42.6876 104° East  Level Estimated
Thu 04:12:00 AM -2.8118 -42.5782 104° East  Level Estimated
Thu 04:13:00 AM -2.8381 -42.4689 104° East  Level Estimated
Thu 04:14:00 AM -2.8644 -42.3596 104° East  Level Estimated
Thu 04:15:00 AM -2.8906 -42.2502 104° East  Level Estimated
Thu 04:16:00 AM -2.9169 -42.1409 104° East  Level Estimated
Thu 04:17:00 AM -2.9432 -42.0315 104° East  Level Estimated
Thu 04:18:00 AM -2.9694 -41.9221 104° East  Level Estimated
Thu 04:19:00 AM -2.9956 -41.8128 104° East  Level Estimated
Thu 04:20:00 AM -3.0218 -41.7034 104° East  Level Estimated
Thu 04:21:00 AM -3.0480 -41.5940 103° East  Level Estimated
Thu 04:22:00 AM -3.0742 -41.4846 103° East  Level Estimated
Thu 04:23:00 AM -3.1004 -41.3753 103° East  Level Estimated
Thu 04:24:00 AM -3.1266 -41.2659 103° East  Level Estimated
Thu 04:25:00 AM -3.1528 -41.1565 103° East  Level Estimated
Thu 04:26:00 AM -3.1789 -41.0471 103° East  Level Estimated
Thu 04:27:00 AM -3.2051 -40.9376 103° East  Level Estimated
Thu 04:28:00 AM -3.2312 -40.8282 103° East  Level Estimated
Thu 04:29:00 AM -3.2573 -40.7188 103° East  Level Estimated
Thu 04:30:00 AM -3.2834 -40.6094 103° East  Level Estimated
Thu 04:31:00 AM -3.3095 -40.5000 103° East  Level Estimated
Thu 04:32:00 AM -3.3356 -40.3905 103° East  Level Estimated
Thu 04:33:00 AM -3.3617 -40.2811 103° East  Level Estimated
Thu 04:34:00 AM -3.3877 -40.1716 103° East  Level Estimated
Thu 04:35:00 AM -3.4138 -40.0622 103° East  Level Estimated
Thu 04:36:00 AM -3.4398 -39.9527 103° East  Level Estimated
Thu 04:37:00 AM -3.4658 -39.8432 103° East  Level Estimated
Thu 04:38:00 AM -3.4918 -39.7338 103° East  Level Estimated
Thu 04:39:00 AM -3.5178 -39.6243 103° East  Level Estimated
Thu 04:40:00 AM -3.5438 -39.5148 103° East  Level Estimated
Thu 04:41:00 AM -3.5698 -39.4053 103° East  Level Estimated
Thu 04:42:00 AM -3.5958 -39.2958 103° East  Level Estimated
Thu 04:43:00 AM -3.6217 -39.1863 103° East  Level Estimated
Thu 04:44:00 AM -3.6476 -39.0768 103° East  Level Estimated
Thu 04:45:00 AM -3.6735 -38.9673 103° East  Level Estimated
Thu 04:46:00 AM -3.6995 -38.8577 103° East  Level Estimated
Thu 04:47:00 AM -3.7253 -38.7482 103° East  Level Estimated
Thu 04:48:00 AM -3.7512 -38.6387 103° East  Level Estimated
Thu 04:49:00 AM -3.7763 -38.5326 103° East  Level Estimated
Thu 04:50:00 AM -3.7763 -38.5326 127° Southeast  Level Estimated
Thu 04:51:00 AM -3.7763 -38.5326 127° Southeast  Level Estimated
Thu 04:52:00 AM -3.7763 -38.5326 127° Southeast  Level Estimated
Thu 04:53:00 AM -3.7763 -38.5326 127° Southeast  Level Estimated
Thu 04:54:00 AM -3.7763 -38.5326 127° Southeast  Level Estimated
Thu 04:55:00 AM -3.7763 -38.5326 127° Southeast  Level Estimated
Thu 04:56:00 AM -3.7763 -38.5326 127° Southeast  Level Estimated
Thu 04:57:00 AM -3.7763 -38.5326 127° Southeast  Level Estimated
Thu 04:58:00 AM -3.7763 -38.5326 127° Southeast  Level Estimated
Thu 04:59:00 AM -3.7763 -38.5326 127° Southeast  Level Estimated
Thu 05:00:00 AM -3.7763 -38.5326 127° Southeast  Level Estimated
Thu 05:01:00 AM -3.7763 -38.5326 127° Southeast  Level Estimated
Thu 05:02:00 AM -3.7763 -38.5326 127° Southeast  Level Estimated
Thu 05:03:00 AM -3.7763 -38.5326 127° Southeast  Level Estimated
Thu 05:04:00 AM -3.7763 -38.5326 127° Southeast  Level Estimated
Thu 05:05:00 AM -3.7763 -38.5326 127° Southeast  Level Estimated

Login

Don't have an account? Register now (free) for customized features, flight alerts, and more!